Adhésion

Pour vous inscrire vous pouvez :

Contacter Michel Richez président de l'aéroclub.
  • mail : michel.richez@free.fr
  • tel : 09 50 38 02 06
  • mobile : 06 52 73 09 01

Remplir le formulaire suivant pour vous pré-inscrire.

- Mme  - Mlle 
Nom :
Prenom :
Sexe : Masculin - Féminin
Date de naissance :
adresse :
code postal : - ville :
Mail :
Téléphone :
Mobile :


Etes vous déja breveté?
oui non
si oui merci de preciser :

Webcam :

Nuit aéronautique

18 Jul 2018

Heure locale,
pour LFDL uniquement.

Lever du soleil aéronautique :05:54
Lever du soleil :06:24
Coucher du soleil :21:47
Coucher du soleil aéronautique :22:17

Metar

LFBI :
2018/07/18 18:00
LFBI 181800Z AUTO 01006KT CAVOK 27/13 Q1015 NOSIG
LFBI :
Poitiers, France (LFBI) 46-35N 000-19E 120M
Jul 18, 2018 - 02:00 PM EDT / 2018.07.18 1800 UTC
Wind: from the N (010 degrees) at 7 MPH (6 KT):0
Visibility: greater than 7 mile(s):0
Temperature: 80 F (27 C)
Dew Point: 55 F (13 C)
Relative Humidity: 41%
Pressure (altimeter): 29.97 in. Hg (1015 hPa)
ob: LFBI 181800Z AUTO 01006KT CAVOK 27/13 Q1015 NOSIG
cycle: 18

Afficher le metar d'une autre station :
Code OACI :

Aéroclub de Loudun


Bellevue
86200 Loudun


Contacter Michel Richez (président)

  • Mail:michel.richez@free.fr
  • Tel:09-50-38-02-06
  • Mobile:06-52-73-09-01



agrandir le plan

Newsletter

Mon e-mail :